sensor_id;sensor_type;location;lat;lon;timestamp;P1;durP1;ratioP1;P2;durP2;ratioP2
52047;SDS011;46904;49.438;8.752;2023-01-28T00:02:11;2.03;;;1.40;;
52047;SDS011;46904;49.438;8.752;2023-01-28T00:04:37;1.88;;;1.35;;
52047;SDS011;46904;49.438;8.752;2023-01-28T00:07:03;1.38;;;1.20;;
52047;SDS011;46904;49.438;8.752;2023-01-28T00:09:28;1.10;;;0.95;;
52047;SDS011;46904;49.438;8.752;2023-01-28T00:11:54;1.40;;;1.17;;
52047;SDS011;46904;49.438;8.752;2023-01-28T00:14:19;1.90;;;1.20;;
52047;SDS011;46904;49.438;8.752;2023-01-28T00:16:45;1.35;;;1.17;;
52047;SDS011;46904;49.438;8.752;2023-01-28T00:19:10;1.20;;;1.10;;
52047;SDS011;46904;49.438;8.752;2023-01-28T00:21:36;1.45;;;1.10;;
52047;SDS011;46904;49.438;8.752;2023-01-28T00:24:01;1.10;;;1.00;;
52047;SDS011;46904;49.438;8.752;2023-01-28T00:26:27;1.20;;;1.10;;
52047;SDS011;46904;49.438;8.752;2023-01-28T00:28:52;1.23;;;1.13;;
52047;SDS011;46904;49.438;8.752;2023-01-28T00:31:24;1.15;;;1.00;;
52047;SDS011;46904;49.438;8.752;2023-01-28T00:33:50;1.00;;;0.90;;
52047;SDS011;46904;49.438;8.752;2023-01-28T00:36:16;1.23;;;1.00;;
52047;SDS011;46904;49.438;8.752;2023-01-28T00:38:47;1.15;;;1.00;;
52047;SDS011;46904;49.438;8.752;2023-01-28T00:41:14;1.90;;;1.10;;
52047;SDS011;46904;49.438;8.752;2023-01-28T00:43:40;0.82;;;0.82;;
52047;SDS011;46904;49.438;8.752;2023-01-28T00:46:07;1.02;;;0.90;;
52047;SDS011;46904;49.438;8.752;2023-01-28T00:48:33;1.52;;;1.35;;
52047;SDS011;46904;49.438;8.752;2023-01-28T00:50:59;1.52;;;0.90;;
52047;SDS011;46904;49.438;8.752;2023-01-28T00:53:25;1.17;;;0.98;;
52047;SDS011;46904;49.438;8.752;2023-01-28T00:55:50;1.30;;;1.20;;
52047;SDS011;46904;49.438;8.752;2023-01-28T00:58:16;1.10;;;1.00;;
52047;SDS011;46904;49.438;8.752;2023-01-28T01:00:41;1.20;;;1.10;;
52047;SDS011;46904;49.438;8.752;2023-01-28T01:03:07;1.42;;;1.33;;
52047;SDS011;46904;49.438;8.752;2023-01-28T01:05:32;1.58;;;1.30;;
52047;SDS011;46904;49.438;8.752;2023-01-28T01:07:58;1.83;;;1.25;;
52047;SDS011;46904;49.438;8.752;2023-01-28T01:10:24;1.45;;;1.20;;
52047;SDS011;46904;49.438;8.752;2023-01-28T01:12:50;2.25;;;1.30;;
52047;SDS011;46904;49.438;8.752;2023-01-28T01:15:16;1.50;;;1.17;;
52047;SDS011;46904;49.438;8.752;2023-01-28T01:17:42;1.13;;;1.02;;
52047;SDS011;46904;49.438;8.752;2023-01-28T01:20:11;1.10;;;1.00;;
52047;SDS011;46904;49.438;8.752;2023-01-28T01:22:37;1.47;;;1.27;;
52047;SDS011;46904;49.438;8.752;2023-01-28T01:25:03;1.08;;;0.98;;
52047;SDS011;46904;49.438;8.752;2023-01-28T01:27:29;1.13;;;1.00;;
52047;SDS011;46904;49.438;8.752;2023-01-28T01:29:55;2.20;;;1.48;;
52047;SDS011;46904;49.438;8.752;2023-01-28T01:32:20;1.23;;;1.10;;
52047;SDS011;46904;49.438;8.752;2023-01-28T01:34:46;1.10;;;1.00;;
52047;SDS011;46904;49.438;8.752;2023-01-28T01:37:11;0.80;;;0.80;;
52047;SDS011;46904;49.438;8.752;2023-01-28T01:39:37;1.45;;;1.10;;
52047;SDS011;46904;49.438;8.752;2023-01-28T01:42:02;1.00;;;0.80;;
52047;SDS011;46904;49.438;8.752;2023-01-28T01:47:12;1.08;;;0.98;;
52047;SDS011;46904;49.438;8.752;2023-01-28T01:49:38;0.90;;;0.80;;
52047;SDS011;46904;49.438;8.752;2023-01-28T01:52:09;1.23;;;1.00;;
52047;SDS011;46904;49.438;8.752;2023-01-28T01:54:35;1.20;;;0.90;;
52047;SDS011;46904;49.438;8.752;2023-01-28T01:57:03;1.20;;;1.10;;
52047;SDS011;46904;49.438;8.752;2023-01-28T01:59:30;1.00;;;0.90;;
52047;SDS011;46904;49.438;8.752;2023-01-28T02:01:56;1.10;;;0.93;;
52047;SDS011;46904;49.438;8.752;2023-01-28T02:04:28;1.60;;;1.23;;
52047;SDS011;46904;49.438;8.752;2023-01-28T02:06:54;1.08;;;0.98;;
52047;SDS011;46904;49.438;8.752;2023-01-28T02:09:25;1.20;;;1.08;;
52047;SDS011;46904;49.438;8.752;2023-01-28T02:11:53;1.15;;;1.02;;
52047;SDS011;46904;49.438;8.752;2023-01-28T02:14:19;1.33;;;1.10;;
52047;SDS011;46904;49.438;8.752;2023-01-28T02:16:45;1.02;;;0.93;;
52047;SDS011;46904;49.438;8.752;2023-01-28T02:19:11;1.20;;;1.10;;
52047;SDS011;46904;49.438;8.752;2023-01-28T02:24:28;1.20;;;1.10;;
52047;SDS011;46904;49.438;8.752;2023-01-28T02:29:41;1.20;;;1.10;;
52047;SDS011;46904;49.438;8.752;2023-01-28T02:32:24;1.30;;;1.20;;
52047;SDS011;46904;49.438;8.752;2023-01-28T02:34:58;1.02;;;0.93;;
52047;SDS011;46904;49.438;8.752;2023-01-28T02:37:26;1.00;;;0.90;;
52047;SDS011;46904;49.438;8.752;2023-01-28T02:39:55;1.15;;;1.00;;
52047;SDS011;46904;49.438;8.752;2023-01-28T02:42:26;1.35;;;1.23;;
52047;SDS011;46904;49.438;8.752;2023-01-28T02:44:52;1.00;;;0.95;;
52047;SDS011;46904;49.438;8.752;2023-01-28T02:47:18;1.20;;;1.10;;
52047;SDS011;46904;49.438;8.752;2023-01-28T02:49:46;1.10;;;1.00;;
52047;SDS011;46904;49.438;8.752;2023-01-28T03:00:02;0.90;;;0.90;;
52047;SDS011;46904;49.438;8.752;2023-01-28T03:05:18;1.30;;;1.20;;
52047;SDS011;46904;49.438;8.752;2023-01-28T03:07:46;1.75;;;1.10;;
52047;SDS011;46904;49.438;8.752;2023-01-28T03:10:13;1.40;;;1.30;;
52047;SDS011;46904;49.438;8.752;2023-01-28T03:12:39;1.77;;;1.42;;
52047;SDS011;46904;49.438;8.752;2023-01-28T03:15:11;2.05;;;1.42;;
52047;SDS011;46904;49.438;8.752;2023-01-28T03:20:06;1.67;;;1.30;;
52047;SDS011;46904;49.438;8.752;2023-01-28T03:22:33;1.50;;;1.40;;
52047;SDS011;46904;49.438;8.752;2023-01-28T03:25:02;1.33;;;1.23;;
52047;SDS011;46904;49.438;8.752;2023-01-28T03:27:43;1.25;;;1.15;;
52047;SDS011;46904;49.438;8.752;2023-01-28T03:30:12;1.48;;;1.25;;
52047;SDS011;46904;49.438;8.752;2023-01-28T03:32:39;1.30;;;1.20;;
52047;SDS011;46904;49.438;8.752;2023-01-28T03:35:05;1.40;;;1.30;;
52047;SDS011;46904;49.438;8.752;2023-01-28T03:37:31;1.42;;;1.20;;
52047;SDS011;46904;49.438;8.752;2023-01-28T03:40:00;2.42;;;1.20;;
52047;SDS011;46904;49.438;8.752;2023-01-28T03:42:26;1.23;;;1.08;;
52047;SDS011;46904;49.438;8.752;2023-01-28T03:44:51;1.23;;;1.10;;
52047;SDS011;46904;49.438;8.752;2023-01-28T03:47:38;1.50;;;1.40;;
52047;SDS011;46904;49.438;8.752;2023-01-28T03:50:02;1.48;;;1.25;;
52047;SDS011;46904;49.438;8.752;2023-01-28T03:52:29;2.50;;;1.23;;
52047;SDS011;46904;49.438;8.752;2023-01-28T03:54:55;1.50;;;1.30;;
52047;SDS011;46904;49.438;8.752;2023-01-28T03:57:22;1.50;;;1.40;;
52047;SDS011;46904;49.438;8.752;2023-01-28T03:59:47;2.72;;;1.27;;
52047;SDS011;46904;49.438;8.752;2023-01-28T04:02:13;1.65;;;1.30;;
52047;SDS011;46904;49.438;8.752;2023-01-28T04:04:39;1.33;;;1.23;;
52047;SDS011;46904;49.438;8.752;2023-01-28T04:07:05;1.50;;;1.20;;
52047;SDS011;46904;49.438;8.752;2023-01-28T04:09:30;1.52;;;1.42;;
52047;SDS011;46904;49.438;8.752;2023-01-28T04:11:56;1.75;;;1.30;;
52047;SDS011;46904;49.438;8.752;2023-01-28T04:14:22;1.23;;;1.10;;
52047;SDS011;46904;49.438;8.752;2023-01-28T04:16:47;1.88;;;1.63;;
52047;SDS011;46904;49.438;8.752;2023-01-28T04:19:13;1.45;;;1.30;;
52047;SDS011;46904;49.438;8.752;2023-01-28T04:21:38;1.30;;;1.20;;
52047;SDS011;46904;49.438;8.752;2023-01-28T04:24:04;1.45;;;1.35;;
52047;SDS011;46904;49.438;8.752;2023-01-28T04:26:30;1.27;;;1.17;;
52047;SDS011;46904;49.438;8.752;2023-01-28T04:28:55;1.77;;;1.20;;
52047;SDS011;46904;49.438;8.752;2023-01-28T04:31:21;1.55;;;1.30;;
52047;SDS011;46904;49.438;8.752;2023-01-28T04:33:46;2.20;;;1.38;;
52047;SDS011;46904;49.438;8.752;2023-01-28T04:36:12;1.75;;;1.33;;
52047;SDS011;46904;49.438;8.752;2023-01-28T04:38:38;1.60;;;1.40;;
52047;SDS011;46904;49.438;8.752;2023-01-28T04:41:03;2.08;;;1.20;;
52047;SDS011;46904;49.438;8.752;2023-01-28T04:43:29;1.88;;;1.45;;
52047;SDS011;46904;49.438;8.752;2023-01-28T04:45:54;1.30;;;1.20;;
52047;SDS011;46904;49.438;8.752;2023-01-28T04:48:20;1.52;;;1.33;;
52047;SDS011;46904;49.438;8.752;2023-01-28T04:50:45;1.92;;;1.30;;
52047;SDS011;46904;49.438;8.752;2023-01-28T04:53:11;1.38;;;1.27;;
52047;SDS011;46904;49.438;8.752;2023-01-28T04:55:37;1.20;;;1.10;;
52047;SDS011;46904;49.438;8.752;2023-01-28T04:58:02;1.88;;;1.77;;
52047;SDS011;46904;49.438;8.752;2023-01-28T05:00:28;2.08;;;1.50;;
52047;SDS011;46904;49.438;8.752;2023-01-28T05:02:54;1.52;;;1.42;;
52047;SDS011;46904;49.438;8.752;2023-01-28T05:05:19;1.80;;;1.60;;
52047;SDS011;46904;49.438;8.752;2023-01-28T05:07:55;1.50;;;1.40;;
52047;SDS011;46904;49.438;8.752;2023-01-28T05:10:21;1.52;;;1.40;;
52047;SDS011;46904;49.438;8.752;2023-01-28T05:12:47;2.38;;;1.70;;
52047;SDS011;46904;49.438;8.752;2023-01-28T05:15:13;1.35;;;1.25;;
52047;SDS011;46904;49.438;8.752;2023-01-28T05:17:39;1.90;;;1.50;;
52047;SDS011;46904;49.438;8.752;2023-01-28T05:20:04;2.50;;;1.60;;
52047;SDS011;46904;49.438;8.752;2023-01-28T05:22:30;1.40;;;1.30;;
52047;SDS011;46904;49.438;8.752;2023-01-28T05:24:56;1.52;;;1.33;;
52047;SDS011;46904;49.438;8.752;2023-01-28T05:27:21;2.08;;;1.63;;
52047;SDS011;46904;49.438;8.752;2023-01-28T05:29:47;1.58;;;1.42;;
52047;SDS011;46904;49.438;8.752;2023-01-28T05:32:12;1.55;;;1.45;;
52047;SDS011;46904;49.438;8.752;2023-01-28T05:34:38;2.15;;;1.52;;
52047;SDS011;46904;49.438;8.752;2023-01-28T05:37:04;1.30;;;1.20;;
52047;SDS011;46904;49.438;8.752;2023-01-28T05:39:29;2.45;;;1.40;;
52047;SDS011;46904;49.438;8.752;2023-01-28T05:41:55;1.40;;;1.30;;
52047;SDS011;46904;49.438;8.752;2023-01-28T05:44:20;1.73;;;1.63;;
52047;SDS011;46904;49.438;8.752;2023-01-28T05:46:46;4.10;;;1.95;;
52047;SDS011;46904;49.438;8.752;2023-01-28T05:49:11;1.75;;;1.65;;
52047;SDS011;46904;49.438;8.752;2023-01-28T05:51:37;2.50;;;1.83;;
52047;SDS011;46904;49.438;8.752;2023-01-28T05:54:02;2.50;;;1.90;;
52047;SDS011;46904;49.438;8.752;2023-01-28T05:56:28;3.75;;;2.58;;
52047;SDS011;46904;49.438;8.752;2023-01-28T05:58:53;2.60;;;2.08;;
52047;SDS011;46904;49.438;8.752;2023-01-28T06:01:19;2.45;;;2.10;;
52047;SDS011;46904;49.438;8.752;2023-01-28T06:03:45;1.98;;;1.77;;
52047;SDS011;46904;49.438;8.752;2023-01-28T06:06:10;2.17;;;1.85;;
52047;SDS011;46904;49.438;8.752;2023-01-28T06:08:36;2.90;;;1.52;;
52047;SDS011;46904;49.438;8.752;2023-01-28T06:11:01;1.55;;;1.45;;
52047;SDS011;46904;49.438;8.752;2023-01-28T06:13:27;3.17;;;2.08;;
52047;SDS011;46904;49.438;8.752;2023-01-28T06:15:52;3.22;;;2.38;;
52047;SDS011;46904;49.438;8.752;2023-01-28T06:18:18;1.98;;;1.67;;
52047;SDS011;46904;49.438;8.752;2023-01-28T06:20:43;2.20;;;1.85;;
52047;SDS011;46904;49.438;8.752;2023-01-28T06:23:09;2.35;;;2.13;;
52047;SDS011;46904;49.438;8.752;2023-01-28T06:25:34;2.95;;;1.70;;
52047;SDS011;46904;49.438;8.752;2023-01-28T06:28:00;2.45;;;1.85;;
52047;SDS011;46904;49.438;8.752;2023-01-28T06:30:26;2.33;;;1.80;;
52047;SDS011;46904;49.438;8.752;2023-01-28T06:32:54;2.05;;;1.85;;
52047;SDS011;46904;49.438;8.752;2023-01-28T06:35:20;3.80;;;2.60;;
52047;SDS011;46904;49.438;8.752;2023-01-28T06:37:45;4.25;;;2.30;;
52047;SDS011;46904;49.438;8.752;2023-01-28T06:40:11;2.92;;;2.50;;
52047;SDS011;46904;49.438;8.752;2023-01-28T06:42:37;3.90;;;2.53;;
52047;SDS011;46904;49.438;8.752;2023-01-28T06:45:02;3.15;;;2.17;;
52047;SDS011;46904;49.438;8.752;2023-01-28T06:47:28;2.28;;;1.80;;
52047;SDS011;46904;49.438;8.752;2023-01-28T06:49:54;2.20;;;1.92;;
52047;SDS011;46904;49.438;8.752;2023-01-28T06:52:19;3.50;;;2.03;;
52047;SDS011;46904;49.438;8.752;2023-01-28T06:54:45;3.35;;;2.25;;
52047;SDS011;46904;49.438;8.752;2023-01-28T06:57:10;2.25;;;1.92;;
52047;SDS011;46904;49.438;8.752;2023-01-28T06:59:36;2.03;;;1.73;;
52047;SDS011;46904;49.438;8.752;2023-01-28T07:02:01;1.92;;;1.70;;
52047;SDS011;46904;49.438;8.752;2023-01-28T07:04:27;1.95;;;1.50;;
52047;SDS011;46904;49.438;8.752;2023-01-28T07:06:52;2.10;;;1.90;;
52047;SDS011;46904;49.438;8.752;2023-01-28T07:09:18;2.05;;;1.70;;
52047;SDS011;46904;49.438;8.752;2023-01-28T07:11:43;2.40;;;1.77;;
52047;SDS011;46904;49.438;8.752;2023-01-28T07:14:09;1.60;;;1.50;;
52047;SDS011;46904;49.438;8.752;2023-01-28T07:16:35;2.85;;;1.83;;
52047;SDS011;46904;49.438;8.752;2023-01-28T07:19:00;2.45;;;1.73;;
52047;SDS011;46904;49.438;8.752;2023-01-28T07:21:26;2.88;;;2.15;;
52047;SDS011;46904;49.438;8.752;2023-01-28T07:23:51;5.55;;;2.70;;
52047;SDS011;46904;49.438;8.752;2023-01-28T07:26:17;3.25;;;2.33;;
52047;SDS011;46904;49.438;8.752;2023-01-28T07:28:42;3.08;;;2.45;;
52047;SDS011;46904;49.438;8.752;2023-01-28T07:31:08;2.88;;;2.28;;
52047;SDS011;46904;49.438;8.752;2023-01-28T07:33:33;5.68;;;3.92;;
52047;SDS011;46904;49.438;8.752;2023-01-28T07:35:59;5.40;;;3.53;;
52047;SDS011;46904;49.438;8.752;2023-01-28T07:38:24;5.03;;;3.47;;
52047;SDS011;46904;49.438;8.752;2023-01-28T07:40:50;4.65;;;3.00;;
52047;SDS011;46904;49.438;8.752;2023-01-28T07:43:15;2.40;;;2.20;;
52047;SDS011;46904;49.438;8.752;2023-01-28T07:45:41;2.95;;;1.90;;
52047;SDS011;46904;49.438;8.752;2023-01-28T07:48:08;2.33;;;1.67;;
52047;SDS011;46904;49.438;8.752;2023-01-28T07:50:35;2.60;;;1.95;;
52047;SDS011;46904;49.438;8.752;2023-01-28T07:53:01;1.90;;;1.70;;
52047;SDS011;46904;49.438;8.752;2023-01-28T07:55:27;2.95;;;2.08;;
52047;SDS011;46904;49.438;8.752;2023-01-28T07:57:54;2.75;;;2.10;;
52047;SDS011;46904;49.438;8.752;2023-01-28T08:00:20;2.80;;;2.17;;
52047;SDS011;46904;49.438;8.752;2023-01-28T08:02:46;2.03;;;1.83;;
52047;SDS011;46904;49.438;8.752;2023-01-28T08:05:16;2.22;;;2.03;;
52047;SDS011;46904;49.438;8.752;2023-01-28T08:10:07;3.17;;;1.92;;
52047;SDS011;46904;49.438;8.752;2023-01-28T08:12:33;2.05;;;1.85;;
52047;SDS011;46904;49.438;8.752;2023-01-28T08:14:59;2.78;;;1.70;;
52047;SDS011;46904;49.438;8.752;2023-01-28T08:17:24;3.60;;;2.17;;
52047;SDS011;46904;49.438;8.752;2023-01-28T08:19:50;2.13;;;1.73;;
52047;SDS011;46904;49.438;8.752;2023-01-28T08:22:15;2.10;;;1.80;;
52047;SDS011;46904;49.438;8.752;2023-01-28T08:24:41;2.58;;;2.10;;
52047;SDS011;46904;49.438;8.752;2023-01-28T08:27:06;2.53;;;2.05;;
52047;SDS011;46904;49.438;8.752;2023-01-28T08:29:32;2.55;;;2.17;;
52047;SDS011;46904;49.438;8.752;2023-01-28T08:31:57;2.72;;;2.10;;
52047;SDS011;46904;49.438;8.752;2023-01-28T08:34:23;3.47;;;2.15;;
52047;SDS011;46904;49.438;8.752;2023-01-28T08:36:48;2.63;;;2.05;;
52047;SDS011;46904;49.438;8.752;2023-01-28T08:39:14;2.65;;;2.05;;
52047;SDS011;46904;49.438;8.752;2023-01-28T08:41:40;2.22;;;1.95;;
52047;SDS011;46904;49.438;8.752;2023-01-28T08:44:05;3.15;;;2.47;;
52047;SDS011;46904;49.438;8.752;2023-01-28T08:46:31;3.63;;;2.72;;
52047;SDS011;46904;49.438;8.752;2023-01-28T08:48:56;2.78;;;2.40;;
52047;SDS011;46904;49.438;8.752;2023-01-28T08:51:22;2.47;;;2.13;;
52047;SDS011;46904;49.438;8.752;2023-01-28T08:53:47;3.28;;;2.28;;
52047;SDS011;46904;49.438;8.752;2023-01-28T08:56:13;2.25;;;1.73;;
52047;SDS011;46904;49.438;8.752;2023-01-28T08:58:39;2.80;;;2.35;;
52047;SDS011;46904;49.438;8.752;2023-01-28T09:01:04;2.80;;;2.08;;
52047;SDS011;46904;49.438;8.752;2023-01-28T09:03:30;2.90;;;1.80;;
52047;SDS011;46904;49.438;8.752;2023-01-28T09:06:02;2.95;;;2.25;;
52047;SDS011;46904;49.438;8.752;2023-01-28T09:08:28;2.78;;;2.35;;
52047;SDS011;46904;49.438;8.752;2023-01-28T09:10:54;2.58;;;2.10;;
52047;SDS011;46904;49.438;8.752;2023-01-28T09:13:20;2.53;;;2.33;;
52047;SDS011;46904;49.438;8.752;2023-01-28T09:15:46;9.35;;;5.38;;
52047;SDS011;46904;49.438;8.752;2023-01-28T09:18:11;5.25;;;3.40;;
52047;SDS011;46904;49.438;8.752;2023-01-28T09:20:40;3.72;;;3.10;;
52047;SDS011;46904;49.438;8.752;2023-01-28T09:23:05;3.15;;;2.78;;
52047;SDS011;46904;49.438;8.752;2023-01-28T09:25:31;3.28;;;2.53;;
52047;SDS011;46904;49.438;8.752;2023-01-28T09:27:57;3.55;;;2.85;;
52047;SDS011;46904;49.438;8.752;2023-01-28T09:30:23;3.15;;;2.35;;
52047;SDS011;46904;49.438;8.752;2023-01-28T09:32:52;2.45;;;2.10;;
52047;SDS011;46904;49.438;8.752;2023-01-28T09:35:21;3.60;;;2.67;;
52047;SDS011;46904;49.438;8.752;2023-01-28T09:37:50;3.70;;;2.63;;
52047;SDS011;46904;49.438;8.752;2023-01-28T09:40:20;3.58;;;2.65;;
52047;SDS011;46904;49.438;8.752;2023-01-28T09:47:43;4.55;;;2.88;;
52047;SDS011;46904;49.438;8.752;2023-01-28T09:53:18;2.60;;;2.03;;
52047;SDS011;46904;49.438;8.752;2023-01-28T09:55:45;3.55;;;2.65;;
52047;SDS011;46904;49.438;8.752;2023-01-28T09:58:12;2.25;;;2.00;;
52047;SDS011;46904;49.438;8.752;2023-01-28T10:00:44;2.50;;;2.20;;
52047;SDS011;46904;49.438;8.752;2023-01-28T10:05:48;2.60;;;2.38;;
52047;SDS011;46904;49.438;8.752;2023-01-28T10:08:22;2.35;;;2.13;;
52047;SDS011;46904;49.438;8.752;2023-01-28T10:11:09;2.53;;;2.17;;
52047;SDS011;46904;49.438;8.752;2023-01-28T10:13:47;1.95;;;1.75;;
52047;SDS011;46904;49.438;8.752;2023-01-28T10:26:43;2.95;;;2.53;;
52047;SDS011;46904;49.438;8.752;2023-01-28T10:29:10;2.72;;;2.40;;
52047;SDS011;46904;49.438;8.752;2023-01-28T10:31:38;2.13;;;1.92;;
52047;SDS011;46904;49.438;8.752;2023-01-28T10:34:05;2.63;;;1.92;;
52047;SDS011;46904;49.438;8.752;2023-01-28T10:36:31;3.72;;;2.42;;
52047;SDS011;46904;49.438;8.752;2023-01-28T10:38:57;3.72;;;2.95;;
52047;SDS011;46904;49.438;8.752;2023-01-28T10:41:22;6.28;;;3.55;;
52047;SDS011;46904;49.438;8.752;2023-01-28T10:43:48;2.70;;;2.30;;
52047;SDS011;46904;49.438;8.752;2023-01-28T10:46:21;3.95;;;3.25;;
52047;SDS011;46904;49.438;8.752;2023-01-28T10:49:02;3.17;;;2.50;;
52047;SDS011;46904;49.438;8.752;2023-01-28T10:51:37;4.03;;;2.55;;
52047;SDS011;46904;49.438;8.752;2023-01-28T10:54:03;3.85;;;2.40;;
52047;SDS011;46904;49.438;8.752;2023-01-28T10:56:41;2.90;;;2.60;;
52047;SDS011;46904;49.438;8.752;2023-01-28T11:01:44;3.08;;;2.08;;
52047;SDS011;46904;49.438;8.752;2023-01-28T11:04:18;2.95;;;2.38;;
52047;SDS011;46904;49.438;8.752;2023-01-28T11:06:57;3.13;;;2.50;;
52047;SDS011;46904;49.438;8.752;2023-01-28T11:09:25;6.75;;;2.95;;
52047;SDS011;46904;49.438;8.752;2023-01-28T11:11:51;4.43;;;2.70;;
52047;SDS011;46904;49.438;8.752;2023-01-28T11:14:21;3.08;;;2.45;;
52047;SDS011;46904;49.438;8.752;2023-01-28T11:16:47;3.22;;;2.22;;
52047;SDS011;46904;49.438;8.752;2023-01-28T11:19:13;4.30;;;2.38;;
52047;SDS011;46904;49.438;8.752;2023-01-28T11:21:39;2.00;;;1.77;;
52047;SDS011;46904;49.438;8.752;2023-01-28T11:24:11;3.13;;;1.98;;
52047;SDS011;46904;49.438;8.752;2023-01-28T11:26:38;3.95;;;2.38;;
52047;SDS011;46904;49.438;8.752;2023-01-28T11:29:23;2.72;;;2.10;;
52047;SDS011;46904;49.438;8.752;2023-01-28T11:31:50;2.80;;;1.88;;
52047;SDS011;46904;49.438;8.752;2023-01-28T11:34:19;2.08;;;1.88;;
52047;SDS011;46904;49.438;8.752;2023-01-28T11:36:51;4.32;;;3.03;;
52047;SDS011;46904;49.438;8.752;2023-01-28T11:39:21;3.00;;;2.38;;
52047;SDS011;46904;49.438;8.752;2023-01-28T11:41:47;2.92;;;1.77;;
52047;SDS011;46904;49.438;8.752;2023-01-28T11:44:22;2.05;;;1.85;;
52047;SDS011;46904;49.438;8.752;2023-01-28T11:47:00;3.13;;;2.00;;
52047;SDS011;46904;49.438;8.752;2023-01-28T11:57:41;2.60;;;1.85;;
52047;SDS011;46904;49.438;8.752;2023-01-28T12:00:17;2.72;;;2.17;;
52047;SDS011;46904;49.438;8.752;2023-01-28T12:03:35;2.63;;;2.08;;
52047;SDS011;46904;49.438;8.752;2023-01-28T12:08:28;3.47;;;2.67;;
52047;SDS011;46904;49.438;8.752;2023-01-28T12:11:06;3.08;;;2.70;;
52047;SDS011;46904;49.438;8.752;2023-01-28T12:21:06;4.93;;;2.30;;
52047;SDS011;46904;49.438;8.752;2023-01-28T12:36:57;2.22;;;1.83;;
52047;SDS011;46904;49.438;8.752;2023-01-28T12:41:32;2.78;;;1.80;;
52047;SDS011;46904;49.438;8.752;2023-01-28T12:44:02;2.05;;;1.85;;
52047;SDS011;46904;49.438;8.752;2023-01-28T12:49:16;2.00;;;1.83;;
52047;SDS011;46904;49.438;8.752;2023-01-28T12:52:03;2.28;;;1.80;;
52047;SDS011;46904;49.438;8.752;2023-01-28T12:54:34;2.83;;;2.10;;
52047;SDS011;46904;49.438;8.752;2023-01-28T12:57:01;2.13;;;1.90;;
52047;SDS011;46904;49.438;8.752;2023-01-28T12:59:31;2.88;;;1.90;;
52047;SDS011;46904;49.438;8.752;2023-01-28T13:06:57;1.90;;;1.80;;
52047;SDS011;46904;49.438;8.752;2023-01-28T13:09:25;2.53;;;2.00;;
52047;SDS011;46904;49.438;8.752;2023-01-28T13:11:53;2.17;;;1.90;;
52047;SDS011;46904;49.438;8.752;2023-01-28T13:14:23;2.38;;;2.00;;
52047;SDS011;46904;49.438;8.752;2023-01-28T13:16:49;2.22;;;2.00;;
52047;SDS011;46904;49.438;8.752;2023-01-28T13:21:43;2.30;;;2.10;;
52047;SDS011;46904;49.438;8.752;2023-01-28T13:26:48;4.38;;;2.03;;
52047;SDS011;46904;49.438;8.752;2023-01-28T13:31:42;1.48;;;1.30;;
52047;SDS011;46904;49.438;8.752;2023-01-28T13:36:52;1.85;;;1.50;;
52047;SDS011;46904;49.438;8.752;2023-01-28T13:39:20;2.00;;;1.73;;
52047;SDS011;46904;49.438;8.752;2023-01-28T13:41:50;1.33;;;1.15;;
52047;SDS011;46904;49.438;8.752;2023-01-28T13:46:52;1.85;;;1.42;;
52047;SDS011;46904;49.438;8.752;2023-01-28T13:49:20;1.70;;;1.60;;
52047;SDS011;46904;49.438;8.752;2023-01-28T13:51:55;2.17;;;1.85;;
52047;SDS011;46904;49.438;8.752;2023-01-28T13:54:22;2.63;;;1.63;;
52047;SDS011;46904;49.438;8.752;2023-01-28T14:12:14;1.67;;;1.55;;
52047;SDS011;46904;49.438;8.752;2023-01-28T14:19:54;2.05;;;1.83;;
52047;SDS011;46904;49.438;8.752;2023-01-28T14:22:30;3.13;;;2.08;;
52047;SDS011;46904;49.438;8.752;2023-01-28T14:24:56;2.80;;;2.00;;
52047;SDS011;46904;49.438;8.752;2023-01-28T14:27:31;3.10;;;1.90;;
52047;SDS011;46904;49.438;8.752;2023-01-28T14:32:53;2.85;;;2.30;;
52047;SDS011;46904;49.438;8.752;2023-01-28T14:35:32;3.17;;;2.17;;
52047;SDS011;46904;49.438;8.752;2023-01-28T14:40:59;2.47;;;2.13;;
52047;SDS011;46904;49.438;8.752;2023-01-28T14:43:28;2.92;;;2.22;;
52047;SDS011;46904;49.438;8.752;2023-01-28T14:51:21;2.55;;;2.25;;
52047;SDS011;46904;49.438;8.752;2023-01-28T14:59:16;2.65;;;2.40;;
52047;SDS011;46904;49.438;8.752;2023-01-28T15:01:46;2.95;;;2.28;;
52047;SDS011;46904;49.438;8.752;2023-01-28T15:04:25;2.38;;;2.17;;
52047;SDS011;46904;49.438;8.752;2023-01-28T15:06:51;3.80;;;2.60;;
52047;SDS011;46904;49.438;8.752;2023-01-28T15:09:17;3.72;;;2.90;;
52047;SDS011;46904;49.438;8.752;2023-01-28T15:11:52;4.28;;;2.47;;
52047;SDS011;46904;49.438;8.752;2023-01-28T15:14:26;3.63;;;2.40;;
52047;SDS011;46904;49.438;8.752;2023-01-28T15:16:52;5.00;;;3.13;;
52047;SDS011;46904;49.438;8.752;2023-01-28T15:19:21;3.60;;;2.50;;
52047;SDS011;46904;49.438;8.752;2023-01-28T15:21:52;5.30;;;4.15;;
52047;SDS011;46904;49.438;8.752;2023-01-28T15:24:18;4.88;;;3.50;;
52047;SDS011;46904;49.438;8.752;2023-01-28T15:26:53;3.85;;;2.72;;
52047;SDS011;46904;49.438;8.752;2023-01-28T15:29:23;2.88;;;2.47;;
52047;SDS011;46904;49.438;8.752;2023-01-28T15:31:52;3.42;;;2.80;;
52047;SDS011;46904;49.438;8.752;2023-01-28T15:34:18;6.80;;;2.90;;
52047;SDS011;46904;49.438;8.752;2023-01-28T15:36:44;2.88;;;2.53;;
52047;SDS011;46904;49.438;8.752;2023-01-28T15:39:13;2.95;;;2.38;;
52047;SDS011;46904;49.438;8.752;2023-01-28T15:41:39;3.55;;;2.50;;
52047;SDS011;46904;49.438;8.752;2023-01-28T15:44:14;3.08;;;2.45;;
52047;SDS011;46904;49.438;8.752;2023-01-28T15:46:40;3.40;;;2.78;;
52047;SDS011;46904;49.438;8.752;2023-01-28T15:49:06;4.68;;;2.90;;
52047;SDS011;46904;49.438;8.752;2023-01-28T15:51:38;2.65;;;2.45;;
52047;SDS011;46904;49.438;8.752;2023-01-28T15:54:06;2.60;;;2.40;;
52047;SDS011;46904;49.438;8.752;2023-01-28T15:56:33;4.50;;;2.90;;
52047;SDS011;46904;49.438;8.752;2023-01-28T16:01:33;2.50;;;2.30;;
52047;SDS011;46904;49.438;8.752;2023-01-28T16:04:00;3.58;;;2.80;;
52047;SDS011;46904;49.438;8.752;2023-01-28T16:06:44;3.22;;;2.70;;
52047;SDS011;46904;49.438;8.752;2023-01-28T16:09:19;3.97;;;2.60;;
52047;SDS011;46904;49.438;8.752;2023-01-28T16:11:46;5.90;;;3.85;;
52047;SDS011;46904;49.438;8.752;2023-01-28T16:14:19;4.38;;;3.22;;
52047;SDS011;46904;49.438;8.752;2023-01-28T16:16:46;13.40;;;8.98;;
52047;SDS011;46904;49.438;8.752;2023-01-28T16:19:14;5.63;;;4.25;;
52047;SDS011;46904;49.438;8.752;2023-01-28T16:21:43;6.22;;;2.70;;
52047;SDS011;46904;49.438;8.752;2023-01-28T16:24:21;6.75;;;5.07;;
52047;SDS011;46904;49.438;8.752;2023-01-28T16:29:55;3.15;;;2.50;;
52047;SDS011;46904;49.438;8.752;2023-01-28T16:32:28;3.47;;;2.60;;
52047;SDS011;46904;49.438;8.752;2023-01-28T16:34:54;3.60;;;2.40;;
52047;SDS011;46904;49.438;8.752;2023-01-28T16:37:19;2.63;;;1.88;;
52047;SDS011;46904;49.438;8.752;2023-01-28T16:39:51;3.50;;;2.80;;
52047;SDS011;46904;49.438;8.752;2023-01-28T16:42:16;4.40;;;3.13;;
52047;SDS011;46904;49.438;8.752;2023-01-28T16:44:42;3.10;;;2.80;;
52047;SDS011;46904;49.438;8.752;2023-01-28T16:47:07;3.35;;;2.55;;
52047;SDS011;46904;49.438;8.752;2023-01-28T16:49:33;3.13;;;2.83;;
52047;SDS011;46904;49.438;8.752;2023-01-28T16:51:59;3.30;;;2.80;;
52047;SDS011;46904;49.438;8.752;2023-01-28T16:54:25;2.92;;;2.63;;
52047;SDS011;46904;49.438;8.752;2023-01-28T16:56:51;2.65;;;2.20;;
52047;SDS011;46904;49.438;8.752;2023-01-28T16:59:17;2.17;;;1.98;;
52047;SDS011;46904;49.438;8.752;2023-01-28T17:01:43;2.97;;;2.00;;
52047;SDS011;46904;49.438;8.752;2023-01-28T17:04:12;3.83;;;2.53;;
52047;SDS011;46904;49.438;8.752;2023-01-28T17:06:41;2.33;;;2.13;;
52047;SDS011;46904;49.438;8.752;2023-01-28T17:09:07;2.67;;;1.90;;
52047;SDS011;46904;49.438;8.752;2023-01-28T17:11:33;2.65;;;2.13;;
52047;SDS011;46904;49.438;8.752;2023-01-28T17:13:59;2.20;;;2.00;;
52047;SDS011;46904;49.438;8.752;2023-01-28T17:16:27;2.42;;;2.22;;